createdAt,value
2019-05-07T00:01:56.098Z,5.83
2019-05-07T00:04:26.364Z,5.73
2019-05-07T00:06:56.551Z,6.20
2019-05-07T00:09:26.882Z,5.70
2019-05-07T00:11:57.153Z,6.03
2019-05-07T00:14:27.494Z,5.43
2019-05-07T00:16:57.756Z,5.63
2019-05-07T00:19:28.026Z,6.07
2019-05-07T00:21:58.293Z,6.27
2019-05-07T00:24:28.530Z,5.83
2019-05-07T00:26:58.732Z,5.57
2019-05-07T00:29:29.016Z,6.23
2019-05-07T00:31:59.212Z,5.70
2019-05-07T00:34:35.226Z,5.87
2019-05-07T00:37:12.946Z,6.33
2019-05-07T00:40:04.452Z,5.80
2019-05-07T00:42:53.673Z,5.70
2019-05-07T00:45:32.503Z,6.20
2019-05-07T00:48:02.979Z,5.80
2019-05-07T00:50:34.957Z,5.73
2019-05-07T00:53:05.162Z,6.00
2019-05-07T00:55:35.598Z,6.60
2019-05-07T00:58:05.850Z,6.00
2019-05-07T01:00:36.225Z,5.90
2019-05-07T01:03:06.451Z,7.43
2019-05-07T01:05:36.632Z,5.47
2019-05-07T01:08:06.891Z,6.90
2019-05-07T01:10:37.074Z,6.00
2019-05-07T01:13:07.242Z,5.90
2019-05-07T01:15:37.542Z,6.40
2019-05-07T01:18:07.788Z,6.67
2019-05-07T01:20:37.986Z,6.63
2019-05-07T01:23:08.238Z,6.70
2019-05-07T01:25:38.558Z,7.20
2019-05-07T01:28:08.772Z,6.47
2019-05-07T01:30:39.044Z,6.00
2019-05-07T01:33:16.449Z,6.40
2019-05-07T01:36:05.561Z,6.30
2019-05-07T01:38:35.733Z,6.43
2019-05-07T01:41:05.996Z,6.00
2019-05-07T01:43:36.297Z,6.20
2019-05-07T01:46:06.609Z,6.70
2019-05-07T01:48:36.863Z,6.90
2019-05-07T01:51:07.050Z,6.93
2019-05-07T01:53:37.216Z,5.87
2019-05-07T01:56:07.437Z,6.63
2019-05-07T01:58:37.688Z,6.73
2019-05-07T02:01:07.969Z,6.37
2019-05-07T02:04:12.752Z,6.30
2019-05-07T02:07:02.658Z,6.93
2019-05-07T02:09:46.262Z,6.83
2019-05-07T02:12:27.547Z,6.70
2019-05-07T02:14:57.785Z,6.20
2019-05-07T02:17:28.137Z,7.17
2019-05-07T02:19:58.421Z,6.30
2019-05-07T02:22:28.630Z,6.07
2019-05-07T02:24:58.906Z,6.33
2019-05-07T02:27:29.140Z,7.10
2019-05-07T02:29:59.340Z,7.03
2019-05-07T02:32:29.602Z,6.37
2019-05-07T02:34:59.943Z,7.20
2019-05-07T02:37:48.710Z,7.17
2019-05-07T02:40:25.861Z,6.17
2019-05-07T02:42:56.182Z,6.77
2019-05-07T02:45:45.426Z,6.20
2019-05-07T02:48:17.816Z,6.93
2019-05-07T02:51:07.044Z,6.17
2019-05-07T02:53:46.888Z,7.10
2019-05-07T02:56:17.194Z,6.00
2019-05-07T02:58:47.486Z,7.37
2019-05-07T03:01:17.764Z,7.17
2019-05-07T03:03:47.946Z,6.50
2019-05-07T03:06:18.274Z,6.57
2019-05-07T03:08:48.533Z,6.43
2019-05-07T03:11:18.912Z,6.40
2019-05-07T03:13:49.125Z,5.83
2019-05-07T03:16:37.375Z,6.30
2019-05-07T03:18:53.268Z,5.97
2019-05-07T03:21:23.742Z,5.77
2019-05-07T03:24:14.023Z,5.47
2019-05-07T03:26:45.732Z,6.00
2019-05-07T03:29:19.701Z,5.57
2019-05-07T03:31:56.247Z,5.50
2019-05-07T03:34:47.011Z,6.33
2019-05-07T03:37:20.002Z,5.80
2019-05-07T03:39:50.269Z,5.50
2019-05-07T03:42:23.437Z,5.90
2019-05-07T03:45:04.767Z,5.60
2019-05-07T03:47:38.190Z,5.60
2019-05-07T03:50:14.274Z,6.50
2019-05-07T03:52:43.215Z,6.27
2019-05-07T03:55:14.672Z,6.40
2019-05-07T03:57:45.159Z,6.27
2019-05-07T04:00:15.726Z,6.30
2019-05-07T04:02:45.995Z,6.50
2019-05-07T04:05:16.168Z,6.40
2019-05-07T04:07:46.464Z,6.23
2019-05-07T04:10:16.879Z,6.37
2019-05-07T04:12:47.206Z,6.57
2019-05-07T04:15:19.564Z,6.20
2019-05-07T04:17:49.637Z,6.90
2019-05-07T04:20:19.933Z,6.97
2019-05-07T04:22:53.318Z,5.93
2019-05-07T04:25:59.437Z,6.70
2019-05-07T04:28:53.984Z,6.27
2019-05-07T04:31:25.740Z,6.17
2019-05-07T04:33:57.560Z,6.47
2019-05-07T04:36:34.467Z,7.17
2019-05-07T04:39:06.615Z,7.13
2019-05-07T04:41:36.891Z,6.70
2019-05-07T04:44:07.114Z,7.00
2019-05-07T04:46:37.432Z,7.03
2019-05-07T04:49:07.737Z,7.10
2019-05-07T04:51:46.929Z,6.90
2019-05-07T04:54:17.292Z,6.50
2019-05-07T04:56:47.589Z,7.50
2019-05-07T04:59:17.899Z,6.83
2019-05-07T05:01:54.272Z,8.27
2019-05-07T05:04:30.284Z,8.40
2019-05-07T05:06:56.573Z,7.40
2019-05-07T05:09:26.892Z,8.20
2019-05-07T05:11:57.225Z,7.70
2019-05-07T05:14:27.451Z,8.37
2019-05-07T05:16:57.771Z,9.40
2019-05-07T05:19:28.040Z,8.27
2019-05-07T05:22:12.817Z,8.87
2019-05-07T05:24:45.917Z,7.80
2019-05-07T05:27:16.196Z,8.00
2019-05-07T05:29:46.555Z,8.30
2019-05-07T05:32:16.852Z,8.73
2019-05-07T05:34:47.165Z,8.47
2019-05-07T05:37:17.454Z,7.60
2019-05-07T05:39:47.750Z,7.30
2019-05-07T05:42:33.033Z,8.00
2019-05-07T05:45:03.496Z,7.30
2019-05-07T05:47:33.774Z,7.73
2019-05-07T05:50:05.591Z,8.03
2019-05-07T05:52:52.086Z,8.23
2019-05-07T05:55:22.718Z,8.03
2019-05-07T05:58:07.341Z,9.10
2019-05-07T06:00:55.187Z,8.87
2019-05-07T06:03:51.976Z,9.77
2019-05-07T06:06:32.694Z,9.83
2019-05-07T06:09:28.113Z,10.17
2019-05-07T06:12:13.290Z,8.97
2019-05-07T06:14:50.480Z,9.53
2019-05-07T06:17:57.862Z,10.00
2019-05-07T06:20:43.422Z,9.90
2019-05-07T06:23:35.190Z,10.30
2019-05-07T06:26:05.529Z,10.07
2019-05-07T06:28:35.856Z,9.33
2019-05-07T06:31:06.153Z,9.73
2019-05-07T06:33:36.351Z,9.77
2019-05-07T06:36:06.626Z,9.43
2019-05-07T06:38:43.327Z,10.37
2019-05-07T06:41:41.859Z,9.90
2019-05-07T06:44:22.973Z,10.27
2019-05-07T06:46:53.257Z,10.13
2019-05-07T06:49:23.545Z,10.13
2019-05-07T06:51:53.859Z,9.67
2019-05-07T06:54:24.056Z,9.63
2019-05-07T06:56:54.380Z,9.33
2019-05-07T06:59:34.796Z,10.10
2019-05-07T07:02:29.698Z,9.83
2019-05-07T07:05:23.458Z,10.40
2019-05-07T07:07:58.793Z,10.53
2019-05-07T07:10:48.023Z,10.40
2019-05-07T07:13:18.936Z,10.13
2019-05-07T07:15:49.343Z,9.93
2019-05-07T07:18:19.681Z,9.63
2019-05-07T07:20:49.959Z,10.37
2019-05-07T07:23:22.459Z,9.73
2019-05-07T07:25:52.396Z,9.70
2019-05-07T07:28:22.729Z,9.70
2019-05-07T07:31:26.162Z,9.10
2019-05-07T07:33:57.229Z,10.00
2019-05-07T07:36:31.906Z,10.40
2019-05-07T07:39:02.137Z,8.97
2019-05-07T07:41:52.264Z,9.23
2019-05-07T07:44:22.671Z,9.63
2019-05-07T07:46:53.232Z,9.90
2019-05-07T07:49:23.593Z,8.60
2019-05-07T07:51:53.893Z,9.27
2019-05-07T07:54:24.121Z,8.90
2019-05-07T07:57:02.272Z,9.57
2019-05-07T07:59:52.902Z,8.37
2019-05-07T08:03:02.264Z,9.07
2019-05-07T08:05:32.718Z,8.93
2019-05-07T08:08:02.950Z,8.70
2019-05-07T08:10:33.346Z,8.67
2019-05-07T08:13:03.681Z,8.87
2019-05-07T08:15:33.982Z,8.77
2019-05-07T08:18:04.294Z,9.30
2019-05-07T08:20:34.520Z,8.87
2019-05-07T08:23:05.017Z,9.03
2019-05-07T08:25:52.551Z,8.13
2019-05-07T08:28:23.469Z,8.13
2019-05-07T08:31:02.922Z,9.60
2019-05-07T08:33:36.888Z,8.17
2019-05-07T08:36:15.067Z,7.67
2019-05-07T08:38:57.623Z,7.77
2019-05-07T08:41:29.163Z,8.30
2019-05-07T08:44:15.393Z,9.43
2019-05-07T08:47:12.719Z,8.60
2019-05-07T08:49:43.612Z,8.40
2019-05-07T08:52:13.917Z,8.43
2019-05-07T08:54:44.162Z,8.37
2019-05-07T08:57:14.485Z,8.33
2019-05-07T08:59:57.575Z,8.00
2019-05-07T09:02:16.831Z,8.07
2019-05-07T09:04:47.153Z,7.70
2019-05-07T09:07:17.489Z,7.20
2019-05-07T09:09:47.861Z,7.07
2019-05-07T09:12:18.179Z,7.20
2019-05-07T09:14:48.358Z,7.07
2019-05-07T09:17:18.720Z,6.60
2019-05-07T09:19:54.512Z,6.10
2019-05-07T09:22:23.678Z,6.07
2019-05-07T09:24:53.969Z,6.33
2019-05-07T09:27:47.291Z,5.90
2019-05-07T09:30:47.196Z,7.10
2019-05-07T09:33:36.430Z,6.37
2019-05-07T09:36:12.121Z,6.50
2019-05-07T09:38:55.202Z,6.30
2019-05-07T09:41:26.901Z,6.30
2019-05-07T09:44:00.279Z,5.67
2019-05-07T09:46:32.550Z,5.00
2019-05-07T09:49:03.076Z,5.90
2019-05-07T09:51:33.591Z,5.80
2019-05-07T09:54:04.002Z,5.00
2019-05-07T09:56:34.347Z,5.10
2019-05-07T09:59:04.574Z,4.53
2019-05-07T10:01:34.824Z,5.00
2019-05-07T10:04:05.185Z,4.40
2019-05-07T10:06:35.490Z,4.77
2019-05-07T10:09:06.971Z,4.57
2019-05-07T10:11:43.159Z,5.10
2019-05-07T10:14:13.394Z,4.57
2019-05-07T10:16:49.664Z,4.10
2019-05-07T10:19:22.259Z,3.80
2019-05-07T10:21:53.008Z,3.83
2019-05-07T10:24:23.592Z,4.40
2019-05-07T10:26:53.897Z,4.53
2019-05-07T10:29:24.124Z,4.33
2019-05-07T10:31:54.410Z,4.30
2019-05-07T10:34:24.801Z,5.97
2019-05-07T10:36:55.099Z,5.37
2019-05-07T10:39:25.341Z,4.37
2019-05-07T10:41:57.785Z,5.03
2019-05-07T10:44:32.153Z,4.33
2019-05-07T10:47:22.202Z,4.50
2019-05-07T10:50:11.864Z,4.47
2019-05-07T10:52:42.578Z,4.53
2019-05-07T10:55:13.428Z,4.10
2019-05-07T10:57:43.739Z,4.63
2019-05-07T11:00:16.122Z,6.03
2019-05-07T11:02:46.447Z,5.63
2019-05-07T11:05:16.764Z,5.43
2019-05-07T11:07:47.065Z,5.07
2019-05-07T11:10:17.489Z,6.00
2019-05-07T11:12:47.786Z,5.20
2019-05-07T11:15:18.226Z,5.60
2019-05-07T11:18:06.141Z,4.80
2019-05-07T11:20:47.329Z,5.03
2019-05-07T11:23:08.411Z,4.90
2019-05-07T11:25:38.648Z,4.63
2019-05-07T11:28:08.976Z,4.83
2019-05-07T11:30:39.515Z,6.37
2019-05-07T11:33:09.831Z,5.23
2019-05-07T11:35:42.093Z,4.43
2019-05-07T11:38:20.521Z,4.20
2019-05-07T11:40:43.885Z,4.43
2019-05-07T11:43:24.379Z,3.97
2019-05-07T11:46:13.152Z,4.30
2019-05-07T11:48:50.724Z,4.00
2019-05-07T11:51:33.575Z,4.10
2019-05-07T11:54:12.709Z,4.67
2019-05-07T11:56:42.823Z,4.10
2019-05-07T11:59:13.546Z,3.50
2019-05-07T12:01:48.094Z,4.00
2019-05-07T12:04:18.410Z,3.70
2019-05-07T12:06:48.688Z,3.73
2019-05-07T12:09:18.878Z,4.00
2019-05-07T12:11:49.224Z,3.37
2019-05-07T12:14:30.669Z,3.50
2019-05-07T12:16:51.455Z,3.50
2019-05-07T12:19:22.678Z,2.90
2019-05-07T12:21:53.003Z,3.53
2019-05-07T12:24:23.200Z,3.80
2019-05-07T12:26:53.721Z,4.03
2019-05-07T12:29:23.993Z,3.87
2019-05-07T12:32:02.746Z,3.93
2019-05-07T12:34:52.752Z,3.47
2019-05-07T12:37:23.092Z,3.20
2019-05-07T12:39:53.369Z,4.50
2019-05-07T12:42:23.681Z,3.50
2019-05-07T12:44:54.005Z,3.53
2019-05-07T12:47:24.286Z,4.30
2019-05-07T12:49:54.521Z,3.50
2019-05-07T12:52:42.522Z,4.27
2019-05-07T12:55:32.245Z,4.40
2019-05-07T12:58:02.373Z,4.10
2019-05-07T13:00:45.890Z,3.73
2019-05-07T13:03:24.677Z,4.20
2019-05-07T13:05:54.987Z,4.10
2019-05-07T13:08:25.406Z,3.93
2019-05-07T13:10:55.597Z,3.37
2019-05-07T13:13:25.885Z,4.33
2019-05-07T13:15:56.173Z,4.03
2019-05-07T13:18:26.380Z,3.83
2019-05-07T13:20:56.774Z,3.70
2019-05-07T13:23:27.063Z,3.63
2019-05-07T13:25:57.421Z,4.17
2019-05-07T13:28:27.741Z,3.30
2019-05-07T13:30:58.051Z,3.93
2019-05-07T13:33:29.215Z,4.03
2019-05-07T13:36:02.179Z,3.60
2019-05-07T13:38:54.340Z,3.43
2019-05-07T13:41:30.739Z,3.67
2019-05-07T13:44:13.883Z,4.20
2019-05-07T13:46:44.930Z,3.87
2019-05-07T13:49:15.297Z,4.50
2019-05-07T13:51:45.764Z,3.93
2019-05-07T13:54:16.136Z,4.77
2019-05-07T13:56:46.442Z,4.40
2019-05-07T13:59:16.793Z,4.30
2019-05-07T14:02:15.156Z,4.30
2019-05-07T14:04:43.932Z,4.20
2019-05-07T14:07:14.310Z,3.80
2019-05-07T14:09:44.953Z,4.00
2019-05-07T14:12:15.333Z,4.07
2019-05-07T14:14:45.958Z,4.27
2019-05-07T14:17:16.288Z,4.60
2019-05-07T14:19:46.524Z,4.30
2019-05-07T14:22:19.232Z,5.70
2019-05-07T14:24:48.802Z,4.20
2019-05-07T14:27:19.105Z,4.03
2019-05-07T14:29:49.364Z,3.80
2019-05-07T14:32:28.957Z,4.47
2019-05-07T14:35:16.780Z,3.90
2019-05-07T14:37:52.243Z,4.10
2019-05-07T14:40:25.147Z,4.40
2019-05-07T14:43:03.798Z,5.03
2019-05-07T14:45:34.005Z,4.50
2019-05-07T14:48:04.314Z,4.33
2019-05-07T14:50:34.533Z,4.27
2019-05-07T14:53:04.844Z,4.03
2019-05-07T14:55:35.153Z,3.70
2019-05-07T14:58:05.586Z,4.20
2019-05-07T15:00:35.888Z,4.83
2019-05-07T15:03:06.085Z,4.73
2019-05-07T15:05:36.393Z,3.80
2019-05-07T15:08:10.902Z,3.80
2019-05-07T15:10:38.981Z,3.87
2019-05-07T15:13:09.249Z,3.90
2019-05-07T15:15:39.557Z,4.30
2019-05-07T15:18:23.572Z,4.07
2019-05-07T15:20:53.797Z,3.90
2019-05-07T15:23:31.184Z,4.50
2019-05-07T15:26:04.558Z,4.50
2019-05-07T15:28:34.124Z,4.10
2019-05-07T15:31:12.099Z,3.60
2019-05-07T15:33:42.036Z,4.10
2019-05-07T15:36:12.303Z,4.03
2019-05-07T15:38:42.911Z,4.50
2019-05-07T15:41:13.535Z,3.60
2019-05-07T15:43:46.189Z,3.83
2019-05-07T15:46:15.933Z,4.30
2019-05-07T15:48:46.269Z,4.27
2019-05-07T15:51:17.031Z,3.63
2019-05-07T15:53:52.110Z,3.93
2019-05-07T15:56:22.673Z,3.70
2019-05-07T15:58:52.931Z,4.30
2019-05-07T16:01:23.233Z,3.80
2019-05-07T16:03:55.015Z,3.97
2019-05-07T16:06:25.521Z,3.80
2019-05-07T16:08:59.646Z,3.93
2019-05-07T16:11:32.187Z,4.00
2019-05-07T16:14:23.594Z,3.97
2019-05-07T16:16:58.184Z,3.90
2019-05-07T16:19:29.317Z,3.77
2019-05-07T16:22:04.225Z,3.57
2019-05-07T16:24:34.521Z,3.60
2019-05-07T16:27:05.237Z,3.30
2019-05-07T16:29:35.959Z,3.70
2019-05-07T16:32:06.399Z,3.90
2019-05-07T16:34:36.712Z,4.60
2019-05-07T16:37:07.617Z,3.60
2019-05-07T16:39:38.105Z,3.37
2019-05-07T16:42:08.422Z,4.13
2019-05-07T16:44:38.720Z,3.87
2019-05-07T16:47:09.012Z,3.53
2019-05-07T16:49:39.343Z,4.40
2019-05-07T16:52:11.866Z,4.20
2019-05-07T16:54:44.872Z,3.73
2019-05-07T16:57:17.717Z,3.90
2019-05-07T16:59:48.014Z,3.60
2019-05-07T17:02:23.414Z,4.03
2019-05-07T17:05:07.942Z,4.30
2019-05-07T17:07:43.154Z,4.00
2019-05-07T17:10:13.680Z,4.37
2019-05-07T17:12:45.308Z,3.63
2019-05-07T17:15:15.821Z,4.00
2019-05-07T17:17:46.237Z,4.13
2019-05-07T17:20:16.711Z,3.90
2019-05-07T17:22:47.077Z,3.70
2019-05-07T17:25:34.815Z,4.07
2019-05-07T17:28:05.294Z,5.20
2019-05-07T17:30:37.655Z,4.27
2019-05-07T17:33:07.867Z,4.00
2019-05-07T17:35:38.200Z,3.90
2019-05-07T17:38:10.059Z,3.70
2019-05-07T17:40:42.358Z,3.90
2019-05-07T17:43:12.939Z,3.93
2019-05-07T17:45:43.250Z,3.93
2019-05-07T17:48:13.635Z,4.63
2019-05-07T17:50:49.496Z,4.10
2019-05-07T17:53:19.846Z,4.00
2019-05-07T17:55:50.243Z,3.90
2019-05-07T17:58:20.581Z,4.47
2019-05-07T18:00:54.402Z,3.90
2019-05-07T18:03:34.808Z,4.20
2019-05-07T18:06:06.100Z,4.30
2019-05-07T18:08:36.515Z,4.80
2019-05-07T18:11:20.134Z,4.90
2019-05-07T18:13:38.912Z,4.50
2019-05-07T18:16:15.882Z,4.03
2019-05-07T18:18:46.144Z,4.63
2019-05-07T18:21:16.519Z,4.40
2019-05-07T18:23:46.842Z,4.20
2019-05-07T18:26:29.618Z,4.20
2019-05-07T18:28:49.373Z,4.27
2019-05-07T18:31:22.173Z,4.83
2019-05-07T18:33:55.948Z,4.00
2019-05-07T18:36:26.261Z,4.03
2019-05-07T18:39:02.340Z,4.60
2019-05-07T18:41:32.758Z,4.40
2019-05-07T18:44:12.429Z,4.17
2019-05-07T18:46:35.574Z,4.80
2019-05-07T18:49:05.822Z,4.50
2019-05-07T18:51:36.132Z,4.27
2019-05-07T18:54:06.653Z,3.63
2019-05-07T18:56:37.094Z,4.57
2019-05-07T18:59:07.492Z,4.27
2019-05-07T19:01:39.446Z,4.07
2019-05-07T19:04:09.802Z,4.47
2019-05-07T19:06:42.269Z,4.90
2019-05-07T19:09:12.269Z,7.77
2019-05-07T19:11:42.824Z,5.30
2019-05-07T19:14:13.539Z,5.50
2019-05-07T19:16:43.895Z,5.27
2019-05-07T19:19:14.208Z,4.87
2019-05-07T19:21:44.666Z,4.67
2019-05-07T19:24:14.989Z,5.37
2019-05-07T19:26:45.330Z,4.97
2019-05-07T19:29:15.673Z,4.80
2019-05-07T19:31:46.033Z,5.20
2019-05-07T19:34:16.361Z,4.77
2019-05-07T19:36:46.718Z,5.13
2019-05-07T19:39:17.018Z,4.20
2019-05-07T19:41:47.331Z,4.43
2019-05-07T19:44:17.698Z,5.20
2019-05-07T19:46:48.203Z,6.33
2019-05-07T19:49:18.538Z,5.60
2019-05-07T19:51:48.944Z,5.80
2019-05-07T19:54:19.252Z,5.23
2019-05-07T19:56:51.801Z,5.67
2019-05-07T19:59:22.354Z,5.90
2019-05-07T20:01:56.876Z,5.33
2019-05-07T20:04:27.224Z,4.90
2019-05-07T20:06:59.134Z,5.20
2019-05-07T20:09:39.275Z,5.27
2019-05-07T20:12:07.918Z,5.00
2019-05-07T20:14:37.200Z,5.10
2019-05-07T20:17:07.532Z,4.73
2019-05-07T20:19:39.097Z,5.17
2019-05-07T20:22:09.379Z,5.30
2019-05-07T20:24:41.422Z,5.33
2019-05-07T20:27:12.524Z,5.20
2019-05-07T20:29:42.933Z,5.17
2019-05-07T20:32:13.283Z,4.87
2019-05-07T20:34:43.632Z,5.23
2019-05-07T20:37:14.009Z,5.50
2019-05-07T20:39:44.350Z,5.67
2019-05-07T20:42:14.672Z,6.43
2019-05-07T20:44:44.980Z,6.27
2019-05-07T20:47:15.300Z,5.33
2019-05-07T20:49:45.598Z,5.10
2019-05-07T20:52:15.955Z,5.37
2019-05-07T20:54:55.956Z,4.63
2019-05-07T20:57:29.396Z,5.20
2019-05-07T20:59:59.757Z,4.73
2019-05-07T21:02:42.509Z,4.67
2019-05-07T21:05:02.944Z,5.30
2019-05-07T21:07:33.503Z,5.57
2019-05-07T21:10:04.025Z,4.70
2019-05-07T21:12:34.400Z,5.37
2019-05-07T21:15:04.906Z,4.97
2019-05-07T21:17:35.116Z,4.57
2019-05-07T21:20:06.975Z,4.90
2019-05-07T21:22:37.181Z,4.80
2019-05-07T21:25:07.628Z,5.50
2019-05-07T21:27:37.935Z,4.80
2019-05-07T21:30:08.322Z,4.70
2019-05-07T21:32:38.548Z,4.43
2019-05-07T21:35:10.328Z,4.80
2019-05-07T21:37:41.836Z,4.40
2019-05-07T21:40:13.030Z,5.20
2019-05-07T21:42:43.462Z,4.53
2019-05-07T21:45:13.711Z,5.23
2019-05-07T21:47:43.956Z,4.93
2019-05-07T21:50:14.550Z,5.30
2019-05-07T21:52:48.674Z,5.90
2019-05-07T21:55:28.654Z,5.73
2019-05-07T21:58:07.968Z,5.30
2019-05-07T22:01:06.244Z,5.77
2019-05-07T22:03:36.697Z,5.67
2019-05-07T22:06:09.703Z,6.07
2019-05-07T22:08:39.208Z,5.60
2019-05-07T22:11:12.276Z,5.80
2019-05-07T22:13:43.565Z,5.37
2019-05-07T22:16:13.992Z,5.30
2019-05-07T22:18:44.368Z,5.70
2019-05-07T22:21:14.669Z,5.53
2019-05-07T22:23:44.937Z,5.17
2019-05-07T22:26:22.310Z,5.07
2019-05-07T22:28:47.717Z,4.70
2019-05-07T22:31:35.370Z,4.87
2019-05-07T22:34:27.774Z,4.90
2019-05-07T22:37:03.282Z,4.63
2019-05-07T22:39:33.043Z,5.17
2019-05-07T22:42:03.392Z,5.03
2019-05-07T22:44:36.266Z,5.10
2019-05-07T22:47:19.199Z,4.57
2019-05-07T22:49:50.212Z,5.00
2019-05-07T22:52:22.423Z,4.73
2019-05-07T22:54:52.847Z,4.50
2019-05-07T22:57:32.861Z,4.70
2019-05-07T23:00:04.679Z,4.70
2019-05-07T23:02:35.093Z,4.70
2019-05-07T23:05:05.366Z,5.13
2019-05-07T23:07:35.575Z,5.30
2019-05-07T23:10:06.369Z,5.37
2019-05-07T23:12:36.560Z,4.27
2019-05-07T23:15:07.726Z,5.23
2019-05-07T23:17:37.989Z,4.70
2019-05-07T23:20:08.285Z,4.60
2019-05-07T23:22:38.480Z,5.37
2019-05-07T23:25:08.768Z,5.10
2019-05-07T23:27:39.041Z,5.10
2019-05-07T23:30:09.296Z,4.97
2019-05-07T23:32:39.482Z,4.70
2019-05-07T23:35:09.884Z,5.10
2019-05-07T23:37:42.130Z,5.17
2019-05-07T23:40:18.727Z,5.20
2019-05-07T23:42:52.059Z,4.80
2019-05-07T23:45:22.172Z,5.43
2019-05-07T23:47:52.361Z,5.03
2019-05-07T23:50:22.645Z,4.47
2019-05-07T23:52:52.879Z,4.70
2019-05-07T23:55:23.133Z,4.87
2019-05-07T23:57:53.313Z,5.30
